Main page
METAR-TAF:

METAR-TAF

Airports :

Split, Croatia

Split Airport

latitude: 43-32N, longitude: 016-18E, elevation: 19 m

Current weather observation

The report was made 14 minutes ago, at 19:00 UTC
Wind 6 kt from the North
Temperature 12°C
Humidity 54%
Pressure 1014 hPa
Visibility 10 km or more
no clouds below 1500 m and no cumulonimbus

METAR: LDSP 171900Z 01006KT CAVOK 12/03 Q1014 TEMPO 04009KT

Time: 20:14 (19:14 UTC)

Forecast

The report was made 1 hour and 49 minutes ago, at 17:25 UTC
Forecast valid from 17 at 18 UTC to 18 at 18 UTC
Wind 8 kt from the Northeast
Visibility 10 km or more
no clouds below 1500 m and no cumulonimbus
Becoming
from 18 at 01 UTC to 18 at 03 UTC
Wind 6 kt from the Northwest

TAF: LDSP 171725Z 1718/1818 04008KT CAVOK TX15/1812Z TN08/1806Z BECMG 1801/1803 31006KT

Weather observations and forecasts of more than 4000 airports (METAR and TAF reports).

The available stations are represented by yellow and red dots on the map.

Hover mouse over dot to see the name of the station.

Then click to see weather observations and forecasts.

To change the map : click on the green buttons with a black cross to zoom in, on the green button with a dash to zoom out, or on the green arrows for adjacent maps.


METAR-TAF: